National Weather Service Raw Text Product

Displaying AFOS PIL: TAFALO Received: 2018-01-03 21:37 UTC


586 
FTUS43 KDMX 032137 AAC
TAFALO
TAF AMD
KALO 032137Z 0322/0418 30014KT P6SM SKC
     FM032300 32010KT P6SM FEW250
     FM040800 33005KT P6SM FEW250=